sensor_id;sensor_type;location;lat;lon;timestamp;P1;durP1;ratioP1;P2;durP2;ratioP2
56736;SDS011;42618;51.226;4.910;2023-02-11T00:00:16;14.20;;;7.13;;
56736;SDS011;42618;51.226;4.910;2023-02-11T00:02:42;17.77;;;6.90;;
56736;SDS011;42618;51.226;4.910;2023-02-11T00:05:13;20.63;;;7.80;;
56736;SDS011;42618;51.226;4.910;2023-02-11T00:07:39;16.27;;;4.88;;
56736;SDS011;42618;51.226;4.910;2023-02-11T00:10:06;17.08;;;7.10;;
56736;SDS011;42618;51.226;4.910;2023-02-11T00:12:33;19.93;;;7.77;;
56736;SDS011;42618;51.226;4.910;2023-02-11T00:15:00;18.58;;;7.55;;
56736;SDS011;42618;51.226;4.910;2023-02-11T00:17:26;21.45;;;7.45;;
56736;SDS011;42618;51.226;4.910;2023-02-11T00:19:53;12.35;;;6.50;;
56736;SDS011;42618;51.226;4.910;2023-02-11T00:22:20;13.80;;;5.40;;
56736;SDS011;42618;51.226;4.910;2023-02-11T00:24:46;14.75;;;6.78;;
56736;SDS011;42618;51.226;4.910;2023-02-11T00:27:13;14.48;;;6.25;;
56736;SDS011;42618;51.226;4.910;2023-02-11T00:29:39;19.10;;;6.85;;
56736;SDS011;42618;51.226;4.910;2023-02-11T00:32:06;16.25;;;6.90;;
56736;SDS011;42618;51.226;4.910;2023-02-11T00:37:01;16.33;;;6.38;;
56736;SDS011;42618;51.226;4.910;2023-02-11T00:39:27;18.33;;;6.53;;
56736;SDS011;42618;51.226;4.910;2023-02-11T00:41:54;20.73;;;6.85;;
56736;SDS011;42618;51.226;4.910;2023-02-11T00:44:21;15.18;;;6.90;;
56736;SDS011;42618;51.226;4.910;2023-02-11T00:46:47;17.05;;;5.60;;
56736;SDS011;42618;51.226;4.910;2023-02-11T00:49:14;9.18;;;4.50;;
56736;SDS011;42618;51.226;4.910;2023-02-11T00:51:41;13.67;;;5.63;;
56736;SDS011;42618;51.226;4.910;2023-02-11T00:54:07;11.23;;;5.00;;
56736;SDS011;42618;51.226;4.910;2023-02-11T00:56:34;17.73;;;6.65;;
56736;SDS011;42618;51.226;4.910;2023-02-11T00:59:00;12.40;;;5.55;;
56736;SDS011;42618;51.226;4.910;2023-02-11T01:01:27;15.98;;;6.25;;
56736;SDS011;42618;51.226;4.910;2023-02-11T01:03:54;14.93;;;6.50;;
56736;SDS011;42618;51.226;4.910;2023-02-11T01:06:21;15.48;;;5.93;;
56736;SDS011;42618;51.226;4.910;2023-02-11T01:08:48;18.42;;;6.07;;
56736;SDS011;42618;51.226;4.910;2023-02-11T01:11:16;13.48;;;4.45;;
56736;SDS011;42618;51.226;4.910;2023-02-11T01:13:43;18.77;;;6.20;;
56736;SDS011;42618;51.226;4.910;2023-02-11T01:16:10;19.23;;;4.13;;
56736;SDS011;42618;51.226;4.910;2023-02-11T01:18:37;17.80;;;6.53;;
56736;SDS011;42618;51.226;4.910;2023-02-11T01:21:03;19.63;;;6.20;;
56736;SDS011;42618;51.226;4.910;2023-02-11T01:23:30;8.98;;;3.97;;
56736;SDS011;42618;51.226;4.910;2023-02-11T01:25:57;14.07;;;5.47;;
56736;SDS011;42618;51.226;4.910;2023-02-11T01:28:27;14.65;;;4.78;;
56736;SDS011;42618;51.226;4.910;2023-02-11T01:30:54;16.83;;;5.55;;
56736;SDS011;42618;51.226;4.910;2023-02-11T01:33:22;19.70;;;5.00;;
56736;SDS011;42618;51.226;4.910;2023-02-11T01:35:48;20.83;;;6.45;;
56736;SDS011;42618;51.226;4.910;2023-02-11T01:38:23;13.25;;;5.47;;
56736;SDS011;42618;51.226;4.910;2023-02-11T01:43:18;15.13;;;5.10;;
56736;SDS011;42618;51.226;4.910;2023-02-11T01:48:16;16.45;;;5.15;;
56736;SDS011;42618;51.226;4.910;2023-02-11T01:50:46;12.75;;;4.93;;
56736;SDS011;42618;51.226;4.910;2023-02-11T01:53:15;10.95;;;4.22;;
56736;SDS011;42618;51.226;4.910;2023-02-11T01:56:01;14.38;;;4.43;;
56736;SDS011;42618;51.226;4.910;2023-02-11T01:58:47;15.77;;;5.85;;
56736;SDS011;42618;51.226;4.910;2023-02-11T02:01:15;12.85;;;5.35;;
56736;SDS011;42618;51.226;4.910;2023-02-11T02:03:43;17.63;;;5.78;;
56736;SDS011;42618;51.226;4.910;2023-02-11T02:06:32;10.38;;;4.53;;
56736;SDS011;42618;51.226;4.910;2023-02-11T02:13:54;13.80;;;4.97;;
56736;SDS011;42618;51.226;4.910;2023-02-11T02:16:21;13.23;;;4.57;;
56736;SDS011;42618;51.226;4.910;2023-02-11T02:23:51;9.25;;;2.97;;
56736;SDS011;42618;51.226;4.910;2023-02-11T02:32:23;15.82;;;4.90;;
56736;SDS011;42618;51.226;4.910;2023-02-11T02:37:11;10.18;;;4.10;;
56736;SDS011;42618;51.226;4.910;2023-02-11T02:39:40;12.82;;;3.58;;
56736;SDS011;42618;51.226;4.910;2023-02-11T02:42:07;8.90;;;3.23;;
56736;SDS011;42618;51.226;4.910;2023-02-11T02:44:34;14.20;;;4.43;;
56736;SDS011;42618;51.226;4.910;2023-02-11T02:47:01;13.35;;;4.55;;
56736;SDS011;42618;51.226;4.910;2023-02-11T02:49:28;13.32;;;4.95;;
56736;SDS011;42618;51.226;4.910;2023-02-11T03:02:17;19.77;;;5.18;;
56736;SDS011;42618;51.226;4.910;2023-02-11T03:12:52;15.73;;;4.63;;
56736;SDS011;42618;51.226;4.910;2023-02-11T03:15:20;20.77;;;5.88;;
56736;SDS011;42618;51.226;4.910;2023-02-11T03:17:48;11.43;;;4.70;;
56736;SDS011;42618;51.226;4.910;2023-02-11T03:20:17;15.63;;;4.60;;
56736;SDS011;42618;51.226;4.910;2023-02-11T03:22:47;11.98;;;3.90;;
56736;SDS011;42618;51.226;4.910;2023-02-11T03:25:14;12.13;;;2.88;;
56736;SDS011;42618;51.226;4.910;2023-02-11T03:28:16;20.17;;;4.88;;
56736;SDS011;42618;51.226;4.910;2023-02-11T03:30:36;14.23;;;5.22;;
56736;SDS011;42618;51.226;4.910;2023-02-11T03:33:06;14.35;;;5.30;;
56736;SDS011;42618;51.226;4.910;2023-02-11T03:40:50;7.50;;;3.42;;
56736;SDS011;42618;51.226;4.910;2023-02-11T03:43:18;18.80;;;5.03;;
56736;SDS011;42618;51.226;4.910;2023-02-11T03:45:46;19.90;;;5.82;;
56736;SDS011;42618;51.226;4.910;2023-02-11T03:48:19;17.90;;;6.00;;
56736;SDS011;42618;51.226;4.910;2023-02-11T03:50:47;15.88;;;5.40;;
56736;SDS011;42618;51.226;4.910;2023-02-11T03:53:16;17.52;;;4.90;;
56736;SDS011;42618;51.226;4.910;2023-02-11T03:55:43;8.55;;;3.85;;
56736;SDS011;42618;51.226;4.910;2023-02-11T03:58:10;13.93;;;4.00;;
56736;SDS011;42618;51.226;4.910;2023-02-11T04:00:38;12.18;;;4.30;;
56736;SDS011;42618;51.226;4.910;2023-02-11T04:03:06;9.75;;;4.47;;
56736;SDS011;42618;51.226;4.910;2023-02-11T04:05:33;17.27;;;5.93;;
56736;SDS011;42618;51.226;4.910;2023-02-11T04:08:00;11.68;;;4.97;;
56736;SDS011;42618;51.226;4.910;2023-02-11T04:10:26;17.63;;;5.32;;
56736;SDS011;42618;51.226;4.910;2023-02-11T04:12:53;16.05;;;4.40;;
56736;SDS011;42618;51.226;4.910;2023-02-11T04:15:21;14.77;;;5.88;;
56736;SDS011;42618;51.226;4.910;2023-02-11T04:17:48;13.60;;;4.40;;
56736;SDS011;42618;51.226;4.910;2023-02-11T04:20:14;11.35;;;4.07;;
56736;SDS011;42618;51.226;4.910;2023-02-11T04:22:41;14.13;;;5.57;;
56736;SDS011;42618;51.226;4.910;2023-02-11T04:25:07;11.75;;;4.75;;
56736;SDS011;42618;51.226;4.910;2023-02-11T04:27:34;23.35;;;5.60;;
56736;SDS011;42618;51.226;4.910;2023-02-11T04:30:01;12.00;;;5.75;;
56736;SDS011;42618;51.226;4.910;2023-02-11T04:32:28;10.13;;;4.72;;
56736;SDS011;42618;51.226;4.910;2023-02-11T04:34:54;14.77;;;4.63;;
56736;SDS011;42618;51.226;4.910;2023-02-11T04:37:21;19.80;;;6.10;;
56736;SDS011;42618;51.226;4.910;2023-02-11T04:39:47;9.82;;;3.90;;
56736;SDS011;42618;51.226;4.910;2023-02-11T04:42:14;8.73;;;3.65;;
56736;SDS011;42618;51.226;4.910;2023-02-11T04:44:41;18.95;;;6.20;;
56736;SDS011;42618;51.226;4.910;2023-02-11T04:47:07;15.98;;;6.03;;
56736;SDS011;42618;51.226;4.910;2023-02-11T04:49:34;8.60;;;4.00;;
56736;SDS011;42618;51.226;4.910;2023-02-11T04:52:00;13.93;;;4.90;;
56736;SDS011;42618;51.226;4.910;2023-02-11T04:54:27;15.50;;;5.80;;
56736;SDS011;42618;51.226;4.910;2023-02-11T04:56:53;16.58;;;6.35;;
56736;SDS011;42618;51.226;4.910;2023-02-11T04:59:20;14.35;;;5.45;;
56736;SDS011;42618;51.226;4.910;2023-02-11T05:01:46;7.38;;;4.03;;
56736;SDS011;42618;51.226;4.910;2023-02-11T05:04:13;12.85;;;4.15;;
56736;SDS011;42618;51.226;4.910;2023-02-11T05:06:40;13.98;;;5.88;;
56736;SDS011;42618;51.226;4.910;2023-02-11T05:09:06;18.80;;;6.63;;
56736;SDS011;42618;51.226;4.910;2023-02-11T05:11:34;23.10;;;6.63;;
56736;SDS011;42618;51.226;4.910;2023-02-11T05:14:01;16.48;;;6.43;;
56736;SDS011;42618;51.226;4.910;2023-02-11T05:16:28;22.10;;;6.63;;
56736;SDS011;42618;51.226;4.910;2023-02-11T05:18:55;19.52;;;5.95;;
56736;SDS011;42618;51.226;4.910;2023-02-11T05:21:21;15.75;;;5.85;;
56736;SDS011;42618;51.226;4.910;2023-02-11T05:23:48;14.38;;;4.93;;
56736;SDS011;42618;51.226;4.910;2023-02-11T05:26:15;15.75;;;5.93;;
56736;SDS011;42618;51.226;4.910;2023-02-11T05:28:41;18.50;;;5.72;;
56736;SDS011;42618;51.226;4.910;2023-02-11T05:31:08;11.73;;;4.68;;
56736;SDS011;42618;51.226;4.910;2023-02-11T05:33:35;21.40;;;6.57;;
56736;SDS011;42618;51.226;4.910;2023-02-11T05:36:03;21.75;;;6.97;;
56736;SDS011;42618;51.226;4.910;2023-02-11T05:38:30;22.23;;;7.85;;
56736;SDS011;42618;51.226;4.910;2023-02-11T05:40:57;19.73;;;6.78;;
56736;SDS011;42618;51.226;4.910;2023-02-11T05:43:24;10.02;;;5.57;;
56736;SDS011;42618;51.226;4.910;2023-02-11T05:45:50;13.15;;;5.40;;
56736;SDS011;42618;51.226;4.910;2023-02-11T05:48:17;14.98;;;6.43;;
56736;SDS011;42618;51.226;4.910;2023-02-11T05:50:44;15.73;;;6.88;;
56736;SDS011;42618;51.226;4.910;2023-02-11T05:53:10;18.98;;;6.60;;
56736;SDS011;42618;51.226;4.910;2023-02-11T05:55:37;20.02;;;7.88;;
56736;SDS011;42618;51.226;4.910;2023-02-11T05:58:04;26.40;;;8.85;;
56736;SDS011;42618;51.226;4.910;2023-02-11T06:00:31;16.02;;;6.90;;
56736;SDS011;42618;51.226;4.910;2023-02-11T06:02:57;13.75;;;6.35;;
56736;SDS011;42618;51.226;4.910;2023-02-11T06:05:24;22.10;;;9.05;;
56736;SDS011;42618;51.226;4.910;2023-02-11T06:07:51;22.47;;;7.43;;
56736;SDS011;42618;51.226;4.910;2023-02-11T06:10:18;23.20;;;9.80;;
56736;SDS011;42618;51.226;4.910;2023-02-11T06:12:44;18.30;;;8.07;;
56736;SDS011;42618;51.226;4.910;2023-02-11T06:15:11;25.60;;;8.68;;
56736;SDS011;42618;51.226;4.910;2023-02-11T06:17:37;16.02;;;6.75;;
56736;SDS011;42618;51.226;4.910;2023-02-11T06:20:05;20.15;;;8.40;;
56736;SDS011;42618;51.226;4.910;2023-02-11T06:22:32;24.35;;;10.25;;
56736;SDS011;42618;51.226;4.910;2023-02-11T06:25:00;23.75;;;10.27;;
56736;SDS011;42618;51.226;4.910;2023-02-11T06:27:28;22.65;;;9.70;;
56736;SDS011;42618;51.226;4.910;2023-02-11T06:29:54;29.70;;;11.00;;
56736;SDS011;42618;51.226;4.910;2023-02-11T06:32:21;23.48;;;9.95;;
56736;SDS011;42618;51.226;4.910;2023-02-11T06:35:07;24.20;;;10.07;;
56736;SDS011;42618;51.226;4.910;2023-02-11T06:37:37;19.95;;;8.25;;
56736;SDS011;42618;51.226;4.910;2023-02-11T06:40:04;19.77;;;7.07;;
56736;SDS011;42618;51.226;4.910;2023-02-11T06:42:30;24.13;;;10.10;;
56736;SDS011;42618;51.226;4.910;2023-02-11T06:44:57;26.80;;;10.35;;
56736;SDS011;42618;51.226;4.910;2023-02-11T06:47:23;18.63;;;7.90;;
56736;SDS011;42618;51.226;4.910;2023-02-11T06:49:50;29.70;;;11.07;;
56736;SDS011;42618;51.226;4.910;2023-02-11T06:52:17;29.15;;;10.50;;
56736;SDS011;42618;51.226;4.910;2023-02-11T06:54:43;27.73;;;10.90;;
56736;SDS011;42618;51.226;4.910;2023-02-11T06:57:10;30.42;;;11.07;;
56736;SDS011;42618;51.226;4.910;2023-02-11T06:59:36;27.13;;;11.70;;
56736;SDS011;42618;51.226;4.910;2023-02-11T07:02:03;25.13;;;11.80;;
56736;SDS011;42618;51.226;4.910;2023-02-11T07:04:30;30.43;;;11.47;;
56736;SDS011;42618;51.226;4.910;2023-02-11T07:06:57;28.10;;;11.80;;
56736;SDS011;42618;51.226;4.910;2023-02-11T07:09:23;28.73;;;9.98;;
56736;SDS011;42618;51.226;4.910;2023-02-11T07:11:50;33.42;;;13.07;;
56736;SDS011;42618;51.226;4.910;2023-02-11T07:14:16;36.50;;;12.82;;
56736;SDS011;42618;51.226;4.910;2023-02-11T07:16:43;31.92;;;11.52;;
56736;SDS011;42618;51.226;4.910;2023-02-11T07:19:09;39.50;;;13.38;;
56736;SDS011;42618;51.226;4.910;2023-02-11T07:21:36;29.00;;;12.27;;
56736;SDS011;42618;51.226;4.910;2023-02-11T07:24:06;35.08;;;12.90;;
56736;SDS011;42618;51.226;4.910;2023-02-11T07:26:36;34.70;;;11.77;;
56736;SDS011;42618;51.226;4.910;2023-02-11T07:29:02;38.17;;;13.85;;
56736;SDS011;42618;51.226;4.910;2023-02-11T07:31:29;34.88;;;13.10;;
56736;SDS011;42618;51.226;4.910;2023-02-11T07:33:57;35.85;;;13.85;;
56736;SDS011;42618;51.226;4.910;2023-02-11T07:36:25;34.33;;;13.10;;
56736;SDS011;42618;51.226;4.910;2023-02-11T07:38:52;47.35;;;18.35;;
56736;SDS011;42618;51.226;4.910;2023-02-11T07:41:19;43.78;;;20.98;;
56736;SDS011;42618;51.226;4.910;2023-02-11T07:46:16;35.50;;;13.45;;
56736;SDS011;42618;51.226;4.910;2023-02-11T07:48:43;48.90;;;15.52;;
56736;SDS011;42618;51.226;4.910;2023-02-11T07:51:14;37.17;;;12.73;;
56736;SDS011;42618;51.226;4.910;2023-02-11T07:53:41;45.70;;;17.70;;
56736;SDS011;42618;51.226;4.910;2023-02-11T07:56:08;47.13;;;16.35;;
56736;SDS011;42618;51.226;4.910;2023-02-11T07:58:35;29.65;;;12.18;;
56736;SDS011;42618;51.226;4.910;2023-02-11T08:01:06;40.23;;;15.13;;
56736;SDS011;42618;51.226;4.910;2023-02-11T08:03:33;54.67;;;16.02;;
56736;SDS011;42618;51.226;4.910;2023-02-11T08:06:06;50.25;;;16.00;;
56736;SDS011;42618;51.226;4.910;2023-02-11T08:08:34;62.85;;;22.67;;
56736;SDS011;42618;51.226;4.910;2023-02-11T08:11:07;59.47;;;23.05;;
56736;SDS011;42618;51.226;4.910;2023-02-11T08:13:34;65.90;;;25.33;;
56736;SDS011;42618;51.226;4.910;2023-02-11T08:16:01;50.63;;;17.47;;
56736;SDS011;42618;51.226;4.910;2023-02-11T08:18:29;49.92;;;17.33;;
56736;SDS011;42618;51.226;4.910;2023-02-11T08:20:55;65.65;;;27.83;;
56736;SDS011;42618;51.226;4.910;2023-02-11T08:23:22;48.58;;;18.02;;
56736;SDS011;42618;51.226;4.910;2023-02-11T08:25:48;44.17;;;17.13;;
56736;SDS011;42618;51.226;4.910;2023-02-11T08:28:15;45.08;;;17.30;;
56736;SDS011;42618;51.226;4.910;2023-02-11T08:30:42;51.53;;;17.10;;
56736;SDS011;42618;51.226;4.910;2023-02-11T08:33:08;59.65;;;20.67;;
56736;SDS011;42618;51.226;4.910;2023-02-11T08:35:35;68.70;;;24.33;;
56736;SDS011;42618;51.226;4.910;2023-02-11T08:38:02;57.35;;;22.33;;
56736;SDS011;42618;51.226;4.910;2023-02-11T08:40:29;87.38;;;32.53;;
56736;SDS011;42618;51.226;4.910;2023-02-11T08:42:55;59.28;;;21.02;;
56736;SDS011;42618;51.226;4.910;2023-02-11T08:45:22;63.75;;;22.05;;
56736;SDS011;42618;51.226;4.910;2023-02-11T08:47:48;63.33;;;21.02;;
56736;SDS011;42618;51.226;4.910;2023-02-11T08:50:15;79.25;;;25.30;;
56736;SDS011;42618;51.226;4.910;2023-02-11T08:52:41;67.15;;;21.58;;
56736;SDS011;42618;51.226;4.910;2023-02-11T08:55:09;76.22;;;27.45;;
56736;SDS011;42618;51.226;4.910;2023-02-11T08:57:36;57.08;;;19.85;;
56736;SDS011;42618;51.226;4.910;2023-02-11T09:00:03;77.53;;;32.00;;
56736;SDS011;42618;51.226;4.910;2023-02-11T09:02:29;54.47;;;20.27;;
56736;SDS011;42618;51.226;4.910;2023-02-11T09:04:56;63.45;;;18.67;;
56736;SDS011;42618;51.226;4.910;2023-02-11T09:07:23;47.30;;;17.08;;
56736;SDS011;42618;51.226;4.910;2023-02-11T09:09:49;60.60;;;19.35;;
56736;SDS011;42618;51.226;4.910;2023-02-11T09:12:16;66.55;;;27.45;;
56736;SDS011;42618;51.226;4.910;2023-02-11T09:14:42;48.13;;;14.95;;
56736;SDS011;42618;51.226;4.910;2023-02-11T09:17:09;61.97;;;18.63;;
56736;SDS011;42618;51.226;4.910;2023-02-11T09:19:35;46.13;;;15.63;;
56736;SDS011;42618;51.226;4.910;2023-02-11T09:22:02;56.78;;;16.95;;
56736;SDS011;42618;51.226;4.910;2023-02-11T09:24:28;57.30;;;18.90;;
56736;SDS011;42618;51.226;4.910;2023-02-11T09:26:55;48.95;;;17.48;;
56736;SDS011;42618;51.226;4.910;2023-02-11T09:29:22;46.90;;;16.55;;
56736;SDS011;42618;51.226;4.910;2023-02-11T09:31:48;57.75;;;19.58;;
56736;SDS011;42618;51.226;4.910;2023-02-11T09:34:15;64.93;;;19.97;;
56736;SDS011;42618;51.226;4.910;2023-02-11T09:36:42;52.30;;;19.33;;
56736;SDS011;42618;51.226;4.910;2023-02-11T09:39:11;64.35;;;20.92;;
56736;SDS011;42618;51.226;4.910;2023-02-11T09:44:15;48.20;;;19.10;;
56736;SDS011;42618;51.226;4.910;2023-02-11T09:46:42;59.55;;;21.10;;
56736;SDS011;42618;51.226;4.910;2023-02-11T09:49:17;62.03;;;21.65;;
56736;SDS011;42618;51.226;4.910;2023-02-11T09:51:48;63.42;;;21.48;;
56736;SDS011;42618;51.226;4.910;2023-02-11T09:54:35;50.97;;;17.00;;
56736;SDS011;42618;51.226;4.910;2023-02-11T09:57:02;62.20;;;20.45;;
56736;SDS011;42618;51.226;4.910;2023-02-11T09:59:29;60.83;;;21.50;;
56736;SDS011;42618;51.226;4.910;2023-02-11T10:02:00;50.33;;;17.17;;
56736;SDS011;42618;51.226;4.910;2023-02-11T10:07:24;69.13;;;21.48;;
56736;SDS011;42618;51.226;4.910;2023-02-11T10:22:54;64.95;;;21.30;;
56736;SDS011;42618;51.226;4.910;2023-02-11T10:25:24;57.42;;;20.20;;
56736;SDS011;42618;51.226;4.910;2023-02-11T10:27:51;59.38;;;22.88;;
56736;SDS011;42618;51.226;4.910;2023-02-11T10:33:06;67.75;;;21.73;;
56736;SDS011;42618;51.226;4.910;2023-02-11T10:35:35;69.13;;;23.17;;
56736;SDS011;42618;51.226;4.910;2023-02-11T10:38:02;74.38;;;20.67;;
56736;SDS011;42618;51.226;4.910;2023-02-11T10:40:30;70.25;;;22.63;;
56736;SDS011;42618;51.226;4.910;2023-02-11T10:45:29;59.95;;;20.10;;
56736;SDS011;42618;51.226;4.910;2023-02-11T10:47:57;50.67;;;15.38;;
56736;SDS011;42618;51.226;4.910;2023-02-11T10:50:26;68.78;;;20.70;;
56736;SDS011;42618;51.226;4.910;2023-02-11T10:52:58;58.60;;;20.85;;
56736;SDS011;42618;51.226;4.910;2023-02-11T10:55:36;54.00;;;19.70;;
56736;SDS011;42618;51.226;4.910;2023-02-11T10:58:02;64.97;;;20.85;;
56736;SDS011;42618;51.226;4.910;2023-02-11T11:00:34;66.45;;;23.38;;
56736;SDS011;42618;51.226;4.910;2023-02-11T11:03:06;59.85;;;20.67;;
56736;SDS011;42618;51.226;4.910;2023-02-11T11:05:47;53.17;;;19.40;;
56736;SDS011;42618;51.226;4.910;2023-02-11T11:08:14;67.68;;;24.70;;
56736;SDS011;42618;51.226;4.910;2023-02-11T11:10:42;71.53;;;23.13;;
56736;SDS011;42618;51.226;4.910;2023-02-11T11:15:36;65.97;;;22.48;;
56736;SDS011;42618;51.226;4.910;2023-02-11T11:20:59;71.25;;;23.08;;
56736;SDS011;42618;51.226;4.910;2023-02-11T11:23:28;65.60;;;25.90;;
56736;SDS011;42618;51.226;4.910;2023-02-11T11:26:13;60.85;;;24.35;;
56736;SDS011;42618;51.226;4.910;2023-02-11T11:31:13;72.45;;;24.33;;
56736;SDS011;42618;51.226;4.910;2023-02-11T11:33:41;59.85;;;22.88;;
56736;SDS011;42618;51.226;4.910;2023-02-11T11:36:10;60.05;;;21.88;;
56736;SDS011;42618;51.226;4.910;2023-02-11T11:38:44;67.40;;;23.58;;
56736;SDS011;42618;51.226;4.910;2023-02-11T11:41:22;61.33;;;23.65;;
56736;SDS011;42618;51.226;4.910;2023-02-11T11:43:55;62.47;;;24.35;;
56736;SDS011;42618;51.226;4.910;2023-02-11T11:46:24;63.28;;;23.65;;
56736;SDS011;42618;51.226;4.910;2023-02-11T11:48:51;50.22;;;19.92;;
56736;SDS011;42618;51.226;4.910;2023-02-11T11:51:19;58.35;;;23.15;;
56736;SDS011;42618;51.226;4.910;2023-02-11T11:56:23;63.85;;;24.42;;
56736;SDS011;42618;51.226;4.910;2023-02-11T11:58:50;62.05;;;24.42;;
56736;SDS011;42618;51.226;4.910;2023-02-11T12:20:02;71.60;;;28.05;;
56736;SDS011;42618;51.226;4.910;2023-02-11T12:22:39;57.97;;;23.55;;
56736;SDS011;42618;51.226;4.910;2023-02-11T12:25:27;64.57;;;23.73;;
56736;SDS011;42618;51.226;4.910;2023-02-11T12:28:03;65.22;;;27.25;;
56736;SDS011;42618;51.226;4.910;2023-02-11T12:44:11;65.43;;;26.25;;
56736;SDS011;42618;51.226;4.910;2023-02-11T12:46:45;68.78;;;29.02;;
56736;SDS011;42618;51.226;4.910;2023-02-11T12:54:20;71.80;;;30.77;;
56736;SDS011;42618;51.226;4.910;2023-02-11T12:59:37;64.07;;;25.38;;
56736;SDS011;42618;51.226;4.910;2023-02-11T13:02:10;60.47;;;22.65;;
56736;SDS011;42618;51.226;4.910;2023-02-11T13:04:40;62.55;;;25.10;;
56736;SDS011;42618;51.226;4.910;2023-02-11T13:07:10;60.03;;;24.25;;
56736;SDS011;42618;51.226;4.910;2023-02-11T13:09:43;62.28;;;25.67;;
56736;SDS011;42618;51.226;4.910;2023-02-11T13:12:11;64.50;;;24.65;;
56736;SDS011;42618;51.226;4.910;2023-02-11T13:14:58;59.90;;;25.92;;
56736;SDS011;42618;51.226;4.910;2023-02-11T13:17:38;58.00;;;24.40;;
56736;SDS011;42618;51.226;4.910;2023-02-11T13:28:14;58.17;;;24.80;;
56736;SDS011;42618;51.226;4.910;2023-02-11T13:30:43;63.20;;;24.80;;
56736;SDS011;42618;51.226;4.910;2023-02-11T13:33:18;65.72;;;26.33;;
56736;SDS011;42618;51.226;4.910;2023-02-11T13:38:22;56.72;;;25.13;;
56736;SDS011;42618;51.226;4.910;2023-02-11T13:43:25;61.17;;;24.88;;
56736;SDS011;42618;51.226;4.910;2023-02-11T13:45:58;57.47;;;24.70;;
56736;SDS011;42618;51.226;4.910;2023-02-11T13:48:26;57.75;;;23.30;;
56736;SDS011;42618;51.226;4.910;2023-02-11T13:51:08;59.17;;;24.08;;
56736;SDS011;42618;51.226;4.910;2023-02-11T13:53:49;61.15;;;25.05;;
56736;SDS011;42618;51.226;4.910;2023-02-11T13:56:26;60.17;;;25.23;;
56736;SDS011;42618;51.226;4.910;2023-02-11T13:58:54;62.75;;;26.73;;
56736;SDS011;42618;51.226;4.910;2023-02-11T14:04:21;66.65;;;28.00;;
56736;SDS011;42618;51.226;4.910;2023-02-11T14:13:12;66.35;;;26.63;;
56736;SDS011;42618;51.226;4.910;2023-02-11T14:15:44;58.92;;;26.52;;
56736;SDS011;42618;51.226;4.910;2023-02-11T14:21:10;68.30;;;29.30;;
56736;SDS011;42618;51.226;4.910;2023-02-11T14:23:38;64.20;;;25.67;;
56736;SDS011;42618;51.226;4.910;2023-02-11T14:42:00;62.03;;;25.95;;
56736;SDS011;42618;51.226;4.910;2023-02-11T14:44:28;59.88;;;27.25;;
56736;SDS011;42618;51.226;4.910;2023-02-11T14:46:55;59.78;;;26.48;;
56736;SDS011;42618;51.226;4.910;2023-02-11T14:49:25;64.05;;;25.80;;
56736;SDS011;42618;51.226;4.910;2023-02-11T14:51:53;54.72;;;22.15;;
56736;SDS011;42618;51.226;4.910;2023-02-11T14:54:22;51.70;;;19.10;;
56736;SDS011;42618;51.226;4.910;2023-02-11T14:57:06;52.53;;;22.85;;
56736;SDS011;42618;51.226;4.910;2023-02-11T14:59:34;58.25;;;25.00;;
56736;SDS011;42618;51.226;4.910;2023-02-11T15:02:00;56.08;;;23.77;;
56736;SDS011;42618;51.226;4.910;2023-02-11T15:04:31;57.80;;;23.60;;
56736;SDS011;42618;51.226;4.910;2023-02-11T15:07:01;54.83;;;23.73;;
56736;SDS011;42618;51.226;4.910;2023-02-11T15:09:31;54.10;;;24.08;;
56736;SDS011;42618;51.226;4.910;2023-02-11T15:11:59;53.45;;;23.80;;
56736;SDS011;42618;51.226;4.910;2023-02-11T15:14:28;54.40;;;23.50;;
56736;SDS011;42618;51.226;4.910;2023-02-11T15:16:56;52.60;;;22.42;;
56736;SDS011;42618;51.226;4.910;2023-02-11T15:19:31;44.10;;;20.00;;
56736;SDS011;42618;51.226;4.910;2023-02-11T15:22:00;59.92;;;27.50;;
56736;SDS011;42618;51.226;4.910;2023-02-11T15:27:08;46.72;;;20.98;;
56736;SDS011;42618;51.226;4.910;2023-02-11T15:29:48;50.55;;;22.00;;
56736;SDS011;42618;51.226;4.910;2023-02-11T15:32:16;66.65;;;28.27;;
56736;SDS011;42618;51.226;4.910;2023-02-11T15:34:44;54.83;;;22.95;;
56736;SDS011;42618;51.226;4.910;2023-02-11T15:37:22;52.05;;;23.60;;
56736;SDS011;42618;51.226;4.910;2023-02-11T15:39:49;49.28;;;23.30;;
56736;SDS011;42618;51.226;4.910;2023-02-11T15:42:17;57.55;;;27.98;;
56736;SDS011;42618;51.226;4.910;2023-02-11T15:47:19;52.78;;;24.52;;
56736;SDS011;42618;51.226;4.910;2023-02-11T15:49:46;49.80;;;21.42;;
56736;SDS011;42618;51.226;4.910;2023-02-11T15:52:20;54.83;;;24.15;;
56736;SDS011;42618;51.226;4.910;2023-02-11T15:54:47;48.63;;;23.42;;
56736;SDS011;42618;51.226;4.910;2023-02-11T15:57:14;56.40;;;28.02;;
56736;SDS011;42618;51.226;4.910;2023-02-11T15:59:44;97.70;;;53.50;;
56736;SDS011;42618;51.226;4.910;2023-02-11T16:02:17;55.90;;;22.83;;
56736;SDS011;42618;51.226;4.910;2023-02-11T16:04:51;53.78;;;23.02;;
56736;SDS011;42618;51.226;4.910;2023-02-11T16:10:21;117.78;;;44.80;;
56736;SDS011;42618;51.226;4.910;2023-02-11T16:12:52;67.75;;;27.85;;
56736;SDS011;42618;51.226;4.910;2023-02-11T16:17:59;79.07;;;31.60;;
56736;SDS011;42618;51.226;4.910;2023-02-11T16:20:25;65.18;;;30.17;;
56736;SDS011;42618;51.226;4.910;2023-02-11T16:22:52;81.63;;;42.25;;
56736;SDS011;42618;51.226;4.910;2023-02-11T16:25:19;57.67;;;28.33;;
56736;SDS011;42618;51.226;4.910;2023-02-11T16:27:50;46.95;;;21.20;;
56736;SDS011;42618;51.226;4.910;2023-02-11T16:30:21;57.28;;;25.08;;
56736;SDS011;42618;51.226;4.910;2023-02-11T16:32:48;50.38;;;24.08;;
56736;SDS011;42618;51.226;4.910;2023-02-11T16:35:15;56.42;;;25.77;;
56736;SDS011;42618;51.226;4.910;2023-02-11T16:37:41;55.13;;;24.33;;
56736;SDS011;42618;51.226;4.910;2023-02-11T16:40:08;56.70;;;24.38;;
56736;SDS011;42618;51.226;4.910;2023-02-11T16:42:37;52.72;;;24.90;;
56736;SDS011;42618;51.226;4.910;2023-02-11T16:45:03;58.10;;;24.80;;
56736;SDS011;42618;51.226;4.910;2023-02-11T16:47:30;63.75;;;27.70;;
56736;SDS011;42618;51.226;4.910;2023-02-11T16:49:57;61.15;;;26.05;;
56736;SDS011;42618;51.226;4.910;2023-02-11T16:52:24;57.00;;;26.05;;
56736;SDS011;42618;51.226;4.910;2023-02-11T16:54:50;65.47;;;28.55;;
56736;SDS011;42618;51.226;4.910;2023-02-11T16:57:21;60.42;;;26.85;;
56736;SDS011;42618;51.226;4.910;2023-02-11T16:59:48;53.42;;;24.27;;
56736;SDS011;42618;51.226;4.910;2023-02-11T17:02:17;61.00;;;24.85;;
56736;SDS011;42618;51.226;4.910;2023-02-11T17:04:49;54.65;;;22.80;;
56736;SDS011;42618;51.226;4.910;2023-02-11T17:07:16;55.17;;;24.10;;
56736;SDS011;42618;51.226;4.910;2023-02-11T17:09:42;55.28;;;22.80;;
56736;SDS011;42618;51.226;4.910;2023-02-11T17:12:09;58.58;;;25.63;;
56736;SDS011;42618;51.226;4.910;2023-02-11T17:14:36;52.22;;;23.17;;
56736;SDS011;42618;51.226;4.910;2023-02-11T17:17:02;52.00;;;23.88;;
56736;SDS011;42618;51.226;4.910;2023-02-11T17:19:29;55.53;;;23.80;;
56736;SDS011;42618;51.226;4.910;2023-02-11T17:21:55;56.83;;;24.02;;
56736;SDS011;42618;51.226;4.910;2023-02-11T17:24:22;55.28;;;23.88;;
56736;SDS011;42618;51.226;4.910;2023-02-11T17:26:49;57.90;;;24.55;;
56736;SDS011;42618;51.226;4.910;2023-02-11T17:29:16;59.30;;;23.58;;
56736;SDS011;42618;51.226;4.910;2023-02-11T17:31:43;60.83;;;25.80;;